createdAt,value
2019-05-15T00:02:18.436Z,94430.76
2019-05-15T00:07:20.328Z,94426.24
2019-05-15T00:12:22.169Z,94414.47
2019-05-15T00:17:23.950Z,94395.19
2019-05-15T00:22:25.803Z,94398.03
2019-05-15T00:27:28.475Z,94405.65
2019-05-15T00:32:30.488Z,94411.45
2019-05-15T00:37:32.329Z,94416.45
2019-05-15T00:42:34.161Z,94418.98
2019-05-15T00:47:36.028Z,94410.16
2019-05-15T00:52:39.285Z,94406.44
2019-05-15T00:57:41.369Z,94408.27
2019-05-15T01:02:43.250Z,94411.20
2019-05-15T01:07:45.130Z,94410.94
2019-05-15T01:12:48.666Z,94399.76
2019-05-15T01:17:50.759Z,94387.51
2019-05-15T01:22:52.526Z,94390.50
2019-05-15T01:27:54.412Z,94371.08
2019-05-15T01:32:56.218Z,94386.66
2019-05-15T01:37:58.583Z,94387.28
2019-05-15T01:43:00.700Z,94380.66
2019-05-15T01:48:03.296Z,94351.31
2019-05-15T01:53:08.196Z,94344.16
2019-05-15T01:58:10.012Z,94355.16
2019-05-15T02:03:11.900Z,94355.45
2019-05-15T02:08:13.715Z,94340.73
2019-05-15T02:13:15.543Z,94330.31
2019-05-15T02:18:19.184Z,94327.09
2019-05-15T02:23:21.105Z,94322.83
2019-05-15T02:28:22.935Z,94324.81
2019-05-15T02:33:24.783Z,94324.41
2019-05-15T02:38:29.547Z,94318.86
2019-05-15T02:43:30.462Z,94320.19
2019-05-15T02:48:32.393Z,94335.00
2019-05-15T02:53:34.351Z,94324.81
2019-05-15T02:58:36.194Z,94319.44
2019-05-15T03:03:38.921Z,94324.32
2019-05-15T03:08:41.366Z,94331.74
2019-05-15T03:13:43.314Z,94340.73
2019-05-15T03:18:45.177Z,94335.14
2019-05-15T03:23:50.646Z,94335.25
2019-05-15T03:28:51.842Z,94337.72
2019-05-15T03:33:55.003Z,94341.36
2019-05-15T03:38:58.730Z,94343.66
2019-05-15T03:44:01.067Z,94343.14
2019-05-15T03:49:02.981Z,94353.05
2019-05-15T03:54:04.892Z,94358.48
2019-05-15T03:59:09.363Z,94370.01
2019-05-15T04:04:10.516Z,94369.37
2019-05-15T04:09:12.318Z,94374.75
2019-05-15T04:14:14.203Z,94367.83
2019-05-15T04:19:18.839Z,94370.34
2019-05-15T04:25:10.631Z,94368.52
2019-05-15T04:30:13.101Z,94368.69
2019-05-15T04:35:15.046Z,94366.44
2019-05-15T04:40:19.315Z,94362.45
2019-05-15T04:45:21.103Z,94367.03
2019-05-15T04:50:23.075Z,94361.80
2019-05-15T04:55:25.033Z,94366.44
2019-05-15T05:00:49.585Z,94369.03
2019-05-15T05:05:51.714Z,94379.22
2019-05-15T05:10:53.751Z,94374.06
2019-05-15T05:15:58.461Z,94376.77
2019-05-15T05:20:59.347Z,94372.98
2019-05-15T05:26:01.156Z,94379.55
2019-05-15T05:31:03.101Z,94378.30
2019-05-15T05:36:05.003Z,94388.39
2019-05-15T05:41:08.154Z,94381.35
2019-05-15T06:00:29.015Z,94398.13
2019-05-15T06:05:30.936Z,94409.61
2019-05-15T06:10:32.804Z,94404.58
2019-05-15T06:15:35.015Z,94416.05
2019-05-15T06:20:39.358Z,94416.59
2019-05-15T06:25:40.827Z,94420.30
2019-05-15T06:36:39.693Z,94399.91
2019-05-15T06:41:41.563Z,94411.47
2019-05-15T06:46:43.651Z,94418.05
2019-05-15T06:51:45.611Z,94408.47
2019-05-15T06:56:49.222Z,94418.05
2019-05-15T07:01:51.415Z,94418.59
2019-05-15T07:06:53.275Z,94425.38
2019-05-15T07:11:55.206Z,94420.97
2019-05-15T07:16:59.213Z,94419.26
2019-05-15T07:34:24.062Z,94400.43
2019-05-15T07:39:28.694Z,94414.99
2019-05-15T07:50:59.432Z,94411.34
2019-05-15T07:56:01.781Z,94417.14
2019-05-15T08:01:05.460Z,94415.43
2019-05-15T08:06:08.763Z,94407.10
2019-05-15T08:11:20.156Z,94406.39
2019-05-15T08:16:14.850Z,94403.00
2019-05-15T08:45:49.594Z,94396.63
2019-05-15T08:50:53.614Z,94408.16
2019-05-15T09:20:12.899Z,94425.88
2019-05-15T09:43:34.098Z,94417.53
2019-05-15T10:13:08.867Z,94401.13
2019-05-15T10:18:10.331Z,94406.84
2019-05-15T10:23:12.230Z,94405.69
2019-05-15T10:28:15.313Z,94408.78
2019-05-15T10:33:20.153Z,94411.75
2019-05-15T10:38:22.900Z,94401.63
2019-05-15T10:43:24.882Z,94388.35
2019-05-15T10:48:29.178Z,94380.65
2019-05-15T10:53:30.725Z,94376.42
2019-05-15T10:58:32.966Z,94379.00
2019-05-15T11:03:35.328Z,94371.39
2019-05-15T11:08:40.202Z,94383.70
2019-05-15T11:13:41.363Z,94376.56
2019-05-15T11:18:43.333Z,94369.53
2019-05-15T11:23:45.464Z,94363.41
2019-05-15T11:28:49.736Z,94358.18
2019-05-15T11:33:52.846Z,94355.56
2019-05-15T11:38:55.012Z,94320.71
2019-05-15T11:43:57.018Z,94354.28
2019-05-15T11:48:59.146Z,94356.97
2019-05-15T11:54:01.091Z,94339.13
2019-05-15T11:59:02.911Z,94331.45
2019-05-15T12:04:04.864Z,94323.77
2019-05-15T12:09:09.100Z,94321.94
2019-05-15T12:14:10.843Z,94326.98
2019-05-15T12:19:17.265Z,94331.34
2019-05-15T12:24:16.561Z,94337.39
2019-05-15T12:29:18.523Z,94324.48
2019-05-15T12:34:20.522Z,94324.31
2019-05-15T12:39:22.696Z,94324.82
2019-05-15T13:04:42.513Z,94345.51
2019-05-15T13:09:48.661Z,94333.80
2019-05-15T13:14:50.730Z,94360.58
2019-05-15T13:19:53.787Z,94368.72
2019-05-15T13:24:55.732Z,94381.81
2019-05-15T13:29:58.376Z,94395.94
2019-05-15T13:35:01.978Z,94394.02
2019-05-15T13:40:05.920Z,94417.51
2019-05-15T13:45:12.641Z,94404.45
2019-05-15T13:50:14.156Z,94405.00
2019-05-15T13:55:24.811Z,94409.13
2019-05-15T14:00:20.672Z,94375.05
2019-05-15T14:05:22.636Z,94379.75
2019-05-15T14:10:24.655Z,94394.53
2019-05-15T14:15:26.952Z,94409.11
2019-05-15T14:20:29.036Z,94425.88
2019-05-15T14:25:32.084Z,94411.63
2019-05-15T14:30:34.200Z,94372.73
2019-05-15T14:35:37.930Z,94413.91
2019-05-15T14:40:41.256Z,94392.07
2019-05-15T14:45:43.235Z,94394.72
2019-05-15T14:50:45.182Z,94386.27
2019-05-15T14:55:49.252Z,94384.88
2019-05-15T15:00:50.916Z,94401.70
2019-05-15T15:05:52.812Z,94381.49
2019-05-15T15:10:54.655Z,94384.41
2019-05-15T15:15:58.921Z,94370.19
2019-05-15T15:21:00.425Z,94373.67
2019-05-15T15:26:02.733Z,94376.97
2019-05-15T15:31:04.958Z,94397.34
2019-05-15T15:36:09.396Z,94398.84
2019-05-15T15:41:11.559Z,94394.08
2019-05-15T15:46:13.712Z,94400.36
2019-05-15T15:51:17.795Z,94400.58
2019-05-15T15:56:19.529Z,94410.12
2019-05-15T16:01:23.929Z,94420.09
2019-05-15T16:06:25.359Z,94424.48
2019-05-15T16:11:27.923Z,94403.87
2019-05-15T16:16:30.087Z,94404.62
2019-05-15T16:21:32.014Z,94400.25
2019-05-15T16:26:33.961Z,94403.84
2019-05-15T16:31:38.392Z,94405.30
2019-05-15T16:36:40.639Z,94415.54
2019-05-15T16:41:42.799Z,94435.80
2019-05-15T16:46:49.172Z,94430.09
2019-05-15T16:51:51.766Z,94439.86
2019-05-15T16:56:54.764Z,94448.98
2019-05-15T17:02:01.730Z,94466.98
2019-05-15T17:07:03.608Z,94471.09
2019-05-15T17:12:08.721Z,94469.89
2019-05-15T17:17:18.520Z,94467.92
2019-05-15T17:22:22.005Z,94447.84
2019-05-15T17:27:28.973Z,94448.83
2019-05-15T17:32:43.119Z,94438.11
2019-05-15T17:37:58.106Z,94421.92
2019-05-15T17:43:09.374Z,94454.83
2019-05-15T17:48:15.454Z,94450.67
2019-05-15T17:53:38.243Z,94465.72
2019-05-15T17:58:58.191Z,94479.73
2019-05-15T18:04:04.959Z,94486.09
2019-05-15T18:09:08.703Z,94486.83
2019-05-15T18:14:15.820Z,94489.78
2019-05-15T18:19:18.868Z,94490.45
2019-05-15T18:24:24.192Z,94507.52
2019-05-15T18:29:34.414Z,94503.94
2019-05-15T18:34:39.994Z,94506.63
2019-05-15T18:39:49.362Z,94522.91
2019-05-15T18:50:30.011Z,94538.30
2019-05-15T18:55:42.117Z,94542.14
2019-05-15T19:00:53.009Z,94543.89
2019-05-15T19:06:18.620Z,94547.25
2019-05-15T19:11:30.179Z,94547.70
2019-05-15T19:16:38.760Z,94542.65
2019-05-15T19:21:58.394Z,94483.71
2019-05-15T19:27:04.140Z,94527.10
2019-05-15T19:32:13.729Z,94514.49
2019-05-15T19:37:40.646Z,94519.17
2019-05-15T19:42:52.624Z,94517.47
2019-05-15T19:48:08.925Z,94509.45
2019-05-15T19:53:21.701Z,94504.12
2019-05-15T19:58:44.058Z,94491.33
2019-05-15T20:03:53.218Z,94498.13
2019-05-15T20:09:04.494Z,94502.97
2019-05-15T20:14:07.037Z,94510.77
2019-05-15T20:19:11.763Z,94501.33
2019-05-15T20:24:23.264Z,94500.20
2019-05-15T20:29:29.025Z,94507.70
2019-05-15T20:34:32.934Z,94513.95
2019-05-15T20:39:38.714Z,94522.73
2019-05-15T20:44:43.818Z,94527.47
2019-05-15T20:49:50.479Z,94515.56
2019-05-15T20:54:52.495Z,94519.41
2019-05-15T20:59:54.775Z,94516.24
2019-05-15T21:04:58.335Z,94507.07
2019-05-15T21:10:00.833Z,94496.40
2019-05-15T21:15:03.064Z,94492.97
2019-05-15T21:20:05.667Z,94486.59
2019-05-15T21:25:10.687Z,94482.41
2019-05-15T21:30:13.477Z,94480.97
2019-05-15T21:35:17.854Z,94482.05
2019-05-15T21:40:19.638Z,94477.41
2019-05-15T21:45:21.894Z,94473.88
2019-05-15T21:50:23.877Z,94481.45
2019-05-15T21:55:25.865Z,94486.99
2019-05-15T22:00:38.027Z,94495.94
2019-05-15T22:05:40.839Z,94498.42
2019-05-15T22:10:43.128Z,94482.87
2019-05-15T22:15:45.163Z,94490.30
2019-05-15T22:20:48.088Z,94491.93
2019-05-15T22:25:51.480Z,94485.25
2019-05-15T22:30:53.549Z,94484.98
2019-05-15T22:35:55.522Z,94491.53
2019-05-15T22:41:03.041Z,94484.97
2019-05-15T22:46:07.737Z,94492.59
2019-05-15T22:51:09.851Z,94490.82
2019-05-15T22:56:11.874Z,94471.09
2019-05-15T23:01:13.828Z,94461.77
2019-05-15T23:06:17.839Z,94452.49
2019-05-15T23:11:19.629Z,94448.77
2019-05-15T23:16:21.571Z,94444.20
2019-05-15T23:21:23.474Z,94440.36
2019-05-15T23:26:25.501Z,94439.03
2019-05-15T23:31:28.059Z,94441.14
2019-05-15T23:36:30.200Z,94432.09
2019-05-15T23:41:32.092Z,94429.80
2019-05-15T23:46:34.190Z,94427.73
2019-05-15T23:51:38.335Z,94435.69
2019-05-15T23:56:39.894Z,94435.69
